Shorkot Weather



Shorkot's Current Weather

Temprature 43.64o few clouds

few clouds

Rain: 0 %

Min Temprature43.64o
Max Temprature43.64o
Humidity25
Wind Speed4.58 m/h
Sun Rise05:40:01
Sun Set19:02:49
Current Time: 13-Aug-2020 19:20:35
Lat/Lon: 31.91, 70.88




Shorkot's Geo Location



Shorkot's Weather Forecast

Time Overall Temp Min Temp Max Temp Humidity Wind Speed Rain
13-Aug-2020 (Thu)
20:00:00 few clouds 43.780 43.020 43.780 25 4.68 m/h 0 %
23:00:00 few clouds 40.420 39.290 40.420 33 7.36 m/h 0 %
14-Aug-2020 (Fri)
02:00:00 scattered clouds 35.920 35.330 35.920 45 8.14 m/h 0 %
05:00:00 few clouds 32.690 32.590 32.690 57 7.21 m/h 0 %
08:00:00 clear sky 33.450 33.450 33.450 56 5.94 m/h 0 %
11:00:00 clear sky 38.190 38.190 38.190 42 3.45 m/h 0 %
14:00:00 scattered clouds 41.380 41.380 41.380 33 3.81 m/h 0 %
17:00:00 scattered clouds 42.350 42.350 42.350 30 2.57 m/h 0 %
20:00:00 scattered clouds 41.100 41.100 41.100 32 6.03 m/h 0 %
23:00:00 light rain 39.320 39.320 39.320 35 8.02 m/h 12 %
15-Aug-2020 (Sat)
02:00:00 broken clouds 37.550 37.550 37.550 41 6.52 m/h 0 %
05:00:00 broken clouds 36.500 36.500 36.500 43 4.1 m/h 0 %
08:00:00 clear sky 36.950 36.950 36.950 43 5.31 m/h 0 %
11:00:00 clear sky 40.630 40.630 40.630 33 4.08 m/h 0 %
14:00:00 clear sky 44.080 44.080 44.080 25 2.62 m/h 0 %
17:00:00 clear sky 45.430 45.430 45.430 21 3.54 m/h 0 %
20:00:00 few clouds 42.320 42.320 42.320 27 7.41 m/h 0 %
23:00:00 clear sky 39.340 39.340 39.340 36 8.36 m/h 0 %
16-Aug-2020 (Sun)
02:00:00 clear sky 37.900 37.900 37.900 39 7.64 m/h 0 %
05:00:00 clear sky 36.650 36.650 36.650 41 2.99 m/h 0 %
08:00:00 clear sky 37.790 37.790 37.790 39 5.6 m/h 0 %
11:00:00 clear sky 41.420 41.420 41.420 32 5.23 m/h 0 %
14:00:00 clear sky 44.180 44.180 44.180 26 3.97 m/h 0 %
17:00:00 clear sky 44.900 44.900 44.900 23 4.2 m/h 0 %
20:00:00 clear sky 42.460 42.460 42.460 27 5.91 m/h 0 %
23:00:00 clear sky 39.910 39.910 39.910 34 7.07 m/h 0 %
17-Aug-2020 (Mon)
02:00:00 clear sky 37.710 37.710 37.710 39 6.4 m/h 0 %
05:00:00 clear sky 36.420 36.420 36.420 43 3.24 m/h 0 %
08:00:00 clear sky 37.650 37.650 37.650 40 4.46 m/h 0 %
11:00:00 clear sky 41.410 41.410 41.410 32 4.14 m/h 0 %
14:00:00 clear sky 44.510 44.510 44.510 25 3.11 m/h 0 %
17:00:00 clear sky 45.190 45.190 45.190 22 4.88 m/h 0 %
20:00:00 clear sky 42.130 42.130 42.130 27 7.34 m/h 0 %
23:00:00 scattered clouds 39.600 39.600 39.600 35 8 m/h 0 %
18-Aug-2020 (Tue)
02:00:00 broken clouds 38.250 38.250 38.250 36 5.14 m/h 0 %
05:00:00 light rain 35.390 35.390 35.390 43 2.69 m/h 19 %
08:00:00 broken clouds 36.560 36.560 36.560 41 3.63 m/h 0 %
11:00:00 scattered clouds 41.260 41.260 41.260 31 3.6 m/h 0 %
14:00:00 clear sky 45.110 45.110 45.110 24 3.54 m/h 0 %
17:00:00 scattered clouds 45.080 45.080 45.080 23 5.38 m/h 0 %

Famous Cities (60)